createdAt,value
2019-03-19T00:02:13.805Z,98804.47
2019-03-19T00:04:46.897Z,98809.38
2019-03-19T00:07:21.420Z,98797.04
2019-03-19T00:09:52.097Z,98804.28
2019-03-19T00:12:22.280Z,98806.34
2019-03-19T00:14:52.450Z,98799.51
2019-03-19T00:17:22.815Z,98801.70
2019-03-19T00:19:53.553Z,98808.34
2019-03-19T00:22:25.739Z,98817.64
2019-03-19T00:24:56.351Z,98813.05
2019-03-19T00:27:32.469Z,98814.49
2019-03-19T00:30:04.106Z,98811.88
2019-03-19T00:32:34.513Z,98803.56
2019-03-19T00:35:05.517Z,98802.84
2019-03-19T00:37:35.859Z,98808.09
2019-03-19T00:40:06.834Z,98806.78
2019-03-19T00:42:37.039Z,98804.23
2019-03-19T00:45:08.193Z,98806.28
2019-03-19T00:47:38.587Z,98809.45
2019-03-19T00:50:13.086Z,98809.76
2019-03-19T00:52:49.472Z,98809.78
2019-03-19T00:55:19.660Z,98814.62
2019-03-19T00:57:49.917Z,98816.74
2019-03-19T01:00:22.194Z,98809.16
2019-03-19T01:02:55.308Z,98810.99
2019-03-19T01:05:25.553Z,98812.88
2019-03-19T01:07:55.912Z,98812.06
2019-03-19T01:10:27.706Z,98817.75
2019-03-19T01:12:59.470Z,98812.03
2019-03-19T01:15:32.182Z,98815.89
2019-03-19T01:18:02.430Z,98811.72
2019-03-19T01:20:32.683Z,98816.74
2019-03-19T01:23:02.943Z,98815.60
2019-03-19T01:25:35.168Z,98808.23
2019-03-19T01:28:07.261Z,98809.76
2019-03-19T01:30:37.594Z,98808.28
2019-03-19T01:33:08.114Z,98806.13
2019-03-19T01:35:38.557Z,98811.22
2019-03-19T01:38:10.415Z,98807.42
2019-03-19T01:40:40.810Z,98805.52
2019-03-19T01:43:11.200Z,98805.52
2019-03-19T01:45:43.097Z,98806.22
2019-03-19T01:48:16.726Z,98812.00
2019-03-19T01:50:46.905Z,98818.58
2019-03-19T01:53:20.553Z,98803.96
2019-03-19T01:55:52.684Z,98809.38
2019-03-19T01:58:23.047Z,98822.03
2019-03-19T02:00:56.016Z,98815.10
2019-03-19T02:03:26.439Z,98812.86
2019-03-19T02:05:56.634Z,98816.56
2019-03-19T02:08:28.105Z,98817.16
2019-03-19T02:10:58.404Z,98814.82
2019-03-19T02:13:28.610Z,98813.68
2019-03-19T02:16:00.367Z,98810.92
2019-03-19T02:18:31.590Z,98815.23
2019-03-19T02:21:01.859Z,98812.34
2019-03-19T02:23:32.078Z,98823.59
2019-03-19T02:26:15.608Z,98827.06
2019-03-19T02:28:39.101Z,98826.30
2019-03-19T02:31:09.301Z,98830.34
2019-03-19T02:33:39.806Z,98828.66
2019-03-19T02:36:12.596Z,98827.78
2019-03-19T02:38:42.897Z,98829.90
2019-03-19T02:41:16.086Z,98834.25
2019-03-19T02:43:47.863Z,98831.23
2019-03-19T02:46:18.521Z,98833.52
2019-03-19T02:48:48.720Z,98831.55
2019-03-19T02:51:18.860Z,98834.80
2019-03-19T02:53:49.038Z,98830.99
2019-03-19T02:56:32.545Z,98835.44
2019-03-19T02:58:53.095Z,98826.30
2019-03-19T03:01:24.496Z,98824.98
2019-03-19T03:03:54.873Z,98835.91
2019-03-19T03:06:25.128Z,98840.67
2019-03-19T03:08:55.248Z,98832.91
2019-03-19T03:11:25.591Z,98835.17
2019-03-19T03:13:56.255Z,98838.56
2019-03-19T03:16:26.508Z,98836.04
2019-03-19T03:18:56.942Z,98836.32
2019-03-19T03:21:27.064Z,98831.91
2019-03-19T03:23:57.225Z,98841.59
2019-03-19T03:26:27.409Z,98848.70
2019-03-19T03:28:59.334Z,98845.27
2019-03-19T03:31:29.833Z,98837.19
2019-03-19T03:34:00.218Z,98837.83
2019-03-19T03:36:30.924Z,98836.71
2019-03-19T03:39:01.145Z,98841.37
2019-03-19T03:41:33.066Z,98842.83
2019-03-19T03:44:03.764Z,98851.66
2019-03-19T03:46:33.911Z,98855.16
2019-03-19T03:49:04.117Z,98857.72
2019-03-19T03:51:34.313Z,98860.60
2019-03-19T03:54:04.534Z,98863.16
2019-03-19T03:56:36.740Z,98863.06
2019-03-19T03:59:07.110Z,98868.78
2019-03-19T04:01:37.263Z,98870.74
2019-03-19T04:04:07.652Z,98866.25
2019-03-19T04:06:38.200Z,98867.22
2019-03-19T04:09:10.598Z,98873.34
2019-03-19T04:11:41.287Z,98868.14
2019-03-19T04:14:11.779Z,98871.95
2019-03-19T04:16:41.934Z,98879.32
2019-03-19T04:19:12.826Z,98878.61
2019-03-19T04:21:44.640Z,98873.80
2019-03-19T04:24:16.646Z,98882.38
2019-03-19T04:26:52.599Z,98881.77
2019-03-19T04:29:22.830Z,98887.28
2019-03-19T04:31:53.595Z,98890.84
2019-03-19T04:34:24.271Z,98892.89
2019-03-19T04:36:57.178Z,98895.14
2019-03-19T04:39:27.468Z,98892.66
2019-03-19T04:41:58.001Z,98888.87
2019-03-19T04:44:28.774Z,98896.92
2019-03-19T04:46:59.046Z,98904.17
2019-03-19T04:49:29.393Z,98902.12
2019-03-19T04:51:59.588Z,98914.16
2019-03-19T04:54:29.840Z,98920.28
2019-03-19T04:57:02.220Z,98921.17
2019-03-19T04:59:34.037Z,98925.95
2019-03-19T05:02:04.414Z,98928.59
2019-03-19T05:04:35.163Z,98936.16
2019-03-19T05:07:08.551Z,98941.86
2019-03-19T05:09:38.756Z,98929.36
2019-03-19T05:12:08.941Z,98926.77
2019-03-19T05:14:39.132Z,98934.81
2019-03-19T05:17:09.305Z,98936.74
2019-03-19T05:19:39.598Z,98935.70
2019-03-19T05:22:09.943Z,98936.20
2019-03-19T05:24:40.568Z,98931.84
2019-03-19T05:27:13.905Z,98946.75
2019-03-19T05:29:44.130Z,98956.53
2019-03-19T05:32:16.013Z,98953.65
2019-03-19T05:34:46.374Z,98950.55
2019-03-19T05:37:16.571Z,98961.56
2019-03-19T05:39:47.177Z,98959.92
2019-03-19T05:42:17.348Z,98958.46
2019-03-19T05:44:47.556Z,98965.88
2019-03-19T05:47:18.213Z,98975.38
2019-03-19T05:49:50.163Z,98974.68
2019-03-19T05:52:20.608Z,98969.45
2019-03-19T05:54:50.856Z,98975.56
2019-03-19T05:57:21.090Z,98973.28
2019-03-19T05:59:51.388Z,98977.91
2019-03-19T06:02:21.650Z,98981.45
2019-03-19T06:04:54.350Z,98978.79
2019-03-19T06:07:24.618Z,98985.31
2019-03-19T06:09:59.038Z,98989.80
2019-03-19T06:12:29.466Z,98987.89
2019-03-19T06:15:03.058Z,98992.48
2019-03-19T06:17:33.375Z,98999.05
2019-03-19T06:20:04.260Z,99003.64
2019-03-19T06:22:36.635Z,98997.73
2019-03-19T06:25:07.802Z,99005.61
2019-03-19T06:27:40.070Z,99007.92
2019-03-19T06:30:13.488Z,99017.42
2019-03-19T06:32:44.183Z,99011.45
2019-03-19T06:35:15.422Z,99013.84
2019-03-19T06:37:46.186Z,99013.93
2019-03-19T06:40:22.695Z,99021.88
2019-03-19T06:42:53.090Z,99024.03
2019-03-19T06:45:24.644Z,99025.48
2019-03-19T06:47:55.323Z,99018.77
2019-03-19T06:50:28.022Z,99027.02
2019-03-19T06:52:58.154Z,99032.65
2019-03-19T06:55:28.728Z,99029.05
2019-03-19T06:57:59.040Z,99033.87
2019-03-19T07:00:32.370Z,99034.63
2019-03-19T07:03:02.562Z,99040.80
2019-03-19T07:05:32.730Z,99037.49
2019-03-19T07:08:03.074Z,99038.50
2019-03-19T07:10:33.323Z,99043.67
2019-03-19T07:13:03.511Z,99040.86
2019-03-19T07:15:34.177Z,99044.64
2019-03-19T07:18:04.658Z,99043.55
2019-03-19T07:20:34.937Z,99041.59
2019-03-19T07:23:05.534Z,99047.96
2019-03-19T07:25:36.058Z,99053.61
2019-03-19T07:28:07.204Z,99052.48
2019-03-19T07:30:37.679Z,99046.55
2019-03-19T07:33:10.618Z,99052.80
2019-03-19T07:35:46.952Z,99056.30
2019-03-19T07:38:17.159Z,99064.31
2019-03-19T07:40:54.138Z,99059.27
2019-03-19T07:43:24.870Z,99062.34
2019-03-19T07:45:57.675Z,99064.25
2019-03-19T07:48:28.411Z,99064.09
2019-03-19T07:51:02.485Z,99066.66
2019-03-19T07:53:32.816Z,99066.28
2019-03-19T07:56:04.785Z,99073.04
2019-03-19T07:58:44.728Z,99077.63
2019-03-19T08:01:08.148Z,99069.59
2019-03-19T08:03:38.632Z,99069.22
2019-03-19T08:06:08.833Z,99075.84
2019-03-19T08:08:41.644Z,99079.66
2019-03-19T08:11:13.146Z,99084.86
2019-03-19T08:13:43.910Z,99078.37
2019-03-19T08:16:14.526Z,99077.83
2019-03-19T08:18:46.204Z,99081.92
2019-03-19T08:21:16.616Z,99076.98
2019-03-19T08:23:46.902Z,99086.50
2019-03-19T08:26:17.111Z,99078.82
2019-03-19T08:28:55.055Z,99094.58
2019-03-19T08:31:19.309Z,99090.83
2019-03-19T08:33:51.117Z,99090.08
2019-03-19T08:36:21.611Z,99094.40
2019-03-19T08:38:52.411Z,99090.44
2019-03-19T08:41:23.120Z,99094.78
2019-03-19T08:43:54.189Z,99095.81
2019-03-19T08:46:25.631Z,99093.61
2019-03-19T08:48:55.906Z,99092.88
2019-03-19T08:51:26.635Z,99093.72
2019-03-19T08:53:59.083Z,99106.06
2019-03-19T08:56:30.149Z,99101.11
2019-03-19T08:59:05.885Z,99105.38
2019-03-19T09:01:32.539Z,99109.98
2019-03-19T09:04:02.871Z,99112.34
2019-03-19T09:06:33.595Z,99103.80
2019-03-19T09:09:08.604Z,99111.19
2019-03-19T09:11:38.961Z,99114.99
2019-03-19T09:14:09.811Z,99113.42
2019-03-19T09:16:40.790Z,99114.21
2019-03-19T09:19:11.313Z,99115.59
2019-03-19T09:21:42.063Z,99111.56
2019-03-19T09:24:15.869Z,99109.31
2019-03-19T09:26:46.725Z,99111.13
2019-03-19T09:29:17.499Z,99116.44
2019-03-19T09:31:48.144Z,99119.25
2019-03-19T09:34:18.644Z,99114.31
2019-03-19T09:36:57.378Z,99115.77
2019-03-19T09:39:22.601Z,99114.09
2019-03-19T09:41:53.408Z,99119.10
2019-03-19T09:44:24.271Z,99118.79
2019-03-19T09:46:54.614Z,99124.62
2019-03-19T09:49:26.504Z,99114.23
2019-03-19T09:51:57.062Z,99113.14
2019-03-19T09:54:27.652Z,99115.12
2019-03-19T09:56:58.225Z,99126.56
2019-03-19T09:59:28.905Z,99124.20
2019-03-19T10:01:59.576Z,99122.03
2019-03-19T10:04:30.571Z,99121.77
2019-03-19T10:07:06.281Z,99120.14
2019-03-19T10:09:38.263Z,99120.33
2019-03-19T10:12:10.852Z,99117.16
2019-03-19T10:14:43.481Z,99125.47
2019-03-19T10:17:14.201Z,99119.39
2019-03-19T10:19:44.480Z,99124.94
2019-03-19T10:22:15.310Z,99126.88
2019-03-19T10:24:45.922Z,99129.27
2019-03-19T10:27:21.440Z,99128.07
2019-03-19T10:29:54.072Z,99125.86
2019-03-19T10:32:24.569Z,99116.58
2019-03-19T10:34:54.904Z,99123.41
2019-03-19T10:37:25.825Z,99128.04
2019-03-19T10:39:55.999Z,99122.78
2019-03-19T10:42:26.267Z,99126.97
2019-03-19T10:44:56.646Z,99125.38
2019-03-19T10:47:27.234Z,99122.41
2019-03-19T10:49:57.728Z,99119.27
2019-03-19T10:52:28.129Z,99121.06
2019-03-19T10:54:58.388Z,99115.59
2019-03-19T10:57:30.308Z,99125.05
2019-03-19T11:00:13.248Z,99128.22
2019-03-19T11:02:47.333Z,99127.64
2019-03-19T11:05:18.072Z,99123.31
2019-03-19T11:07:48.604Z,99125.56
2019-03-19T11:10:19.320Z,99132.25
2019-03-19T11:12:51.789Z,99135.97
2019-03-19T11:15:22.210Z,99133.00
2019-03-19T11:17:52.522Z,99134.64
2019-03-19T11:20:22.863Z,99132.86
2019-03-19T11:22:53.513Z,99133.23
2019-03-19T11:25:23.962Z,99130.09
2019-03-19T11:27:57.216Z,99126.38
2019-03-19T11:30:31.151Z,99122.93
2019-03-19T11:33:01.464Z,99121.31
2019-03-19T11:35:32.823Z,99124.13
2019-03-19T11:38:03.274Z,99122.65
2019-03-19T11:40:36.014Z,99119.91
2019-03-19T11:43:06.881Z,99115.81
2019-03-19T11:45:37.260Z,99118.45
2019-03-19T11:48:07.564Z,99118.09
2019-03-19T11:50:41.230Z,99115.58
2019-03-19T11:53:11.909Z,99116.09
2019-03-19T11:55:42.165Z,99102.30
2019-03-19T11:58:12.672Z,99107.31
2019-03-19T12:00:45.588Z,99113.53
2019-03-19T12:03:16.735Z,99112.88
2019-03-19T12:05:47.326Z,99112.75
2019-03-19T12:08:17.595Z,99116.25
2019-03-19T12:10:48.058Z,99113.59
2019-03-19T12:13:19.363Z,99125.27
2019-03-19T12:15:51.577Z,99119.00
2019-03-19T12:18:21.888Z,99117.84
2019-03-19T12:20:52.241Z,99118.91
2019-03-19T12:23:23.042Z,99120.95
2019-03-19T12:25:53.177Z,99117.76
2019-03-19T12:28:25.450Z,99114.80
2019-03-19T12:30:55.289Z,99106.89
2019-03-19T12:33:25.597Z,99105.08
2019-03-19T12:35:57.811Z,99102.37
2019-03-19T12:38:28.067Z,99103.84
2019-03-19T12:40:58.386Z,99102.20
2019-03-19T12:43:28.538Z,99101.69
2019-03-19T12:45:59.106Z,99099.92
2019-03-19T12:48:32.286Z,99088.74
2019-03-19T12:51:02.701Z,99085.83
2019-03-19T12:53:35.800Z,99095.71
2019-03-19T12:56:06.093Z,99099.77
2019-03-19T12:58:44.684Z,99101.95
2019-03-19T13:01:15.293Z,99093.56
2019-03-19T13:03:45.681Z,99087.97
2019-03-19T13:06:15.901Z,99085.81
2019-03-19T13:08:46.248Z,99087.11
2019-03-19T13:11:16.912Z,99084.02
2019-03-19T13:13:47.322Z,99089.50
2019-03-19T13:16:17.568Z,99082.06
2019-03-19T13:18:47.769Z,99083.89
2019-03-19T13:21:18.035Z,99078.31
2019-03-19T13:23:48.321Z,99085.03
2019-03-19T13:26:21.760Z,99086.00
2019-03-19T13:28:52.390Z,99078.86
2019-03-19T13:31:26.232Z,99085.40
2019-03-19T13:33:56.718Z,99084.09
2019-03-19T13:36:27.035Z,99082.28
2019-03-19T13:38:57.399Z,99084.31
2019-03-19T13:41:28.145Z,99086.28
2019-03-19T13:43:58.615Z,99088.27
2019-03-19T13:46:29.552Z,99090.70
2019-03-19T13:49:00.143Z,99084.45
2019-03-19T13:51:31.085Z,99079.89
2019-03-19T13:54:04.125Z,99077.78
2019-03-19T13:56:34.280Z,99084.75
2019-03-19T13:59:04.767Z,99076.86
2019-03-19T14:01:35.438Z,99079.78
2019-03-19T14:04:08.586Z,99076.68
2019-03-19T14:06:39.030Z,99082.36
2019-03-19T14:09:10.435Z,99077.88
2019-03-19T14:11:40.660Z,99078.70
2019-03-19T14:14:11.670Z,99074.52
2019-03-19T14:16:41.945Z,99079.48
2019-03-19T14:19:18.536Z,99080.34
2019-03-19T14:21:50.333Z,99083.58
2019-03-19T14:24:21.486Z,99090.33
2019-03-19T14:26:52.262Z,99088.84
2019-03-19T14:29:23.082Z,99083.59
2019-03-19T14:31:53.507Z,99089.72
2019-03-19T14:34:24.082Z,99091.62
2019-03-19T14:36:54.268Z,99085.91
2019-03-19T14:39:24.453Z,99088.20
2019-03-19T14:41:54.954Z,99095.75
2019-03-19T14:44:25.820Z,99085.92
2019-03-19T14:46:57.744Z,99094.96
2019-03-19T14:49:28.045Z,99091.39
2019-03-19T14:51:58.320Z,99086.66
2019-03-19T14:54:31.990Z,99088.86
2019-03-19T14:57:03.623Z,99088.12
2019-03-19T14:59:35.444Z,99088.88
2019-03-19T15:02:07.920Z,99091.87
2019-03-19T15:04:39.899Z,99086.92
2019-03-19T15:07:10.160Z,99089.08
2019-03-19T15:09:40.928Z,99093.67
2019-03-19T15:12:11.456Z,99092.50
2019-03-19T15:14:46.586Z,99092.85
2019-03-19T15:17:17.917Z,99089.98
2019-03-19T15:19:48.490Z,99086.52
2019-03-19T15:22:19.367Z,99091.55
2019-03-19T15:24:52.081Z,99087.84
2019-03-19T15:27:22.619Z,99084.78
2019-03-19T15:29:56.311Z,99093.27
2019-03-19T15:32:29.420Z,99097.55
2019-03-19T15:35:00.776Z,99099.26
2019-03-19T15:37:31.565Z,99098.60
2019-03-19T15:40:02.194Z,99096.50
2019-03-19T15:42:32.443Z,99103.20
2019-03-19T15:45:02.820Z,99111.44
2019-03-19T15:47:34.627Z,99103.09
2019-03-19T15:50:06.605Z,99102.61
2019-03-19T15:52:39.906Z,99106.70
2019-03-19T15:55:10.446Z,99108.41
2019-03-19T15:57:41.211Z,99113.36
2019-03-19T16:00:15.373Z,99112.64
2019-03-19T16:02:45.634Z,99118.84
2019-03-19T16:05:18.518Z,99123.69
2019-03-19T16:07:49.651Z,99123.77
2019-03-19T16:10:20.071Z,99131.44
2019-03-19T16:12:52.280Z,99136.02
2019-03-19T16:15:23.104Z,99129.02
2019-03-19T16:17:53.558Z,99134.38
2019-03-19T16:20:23.980Z,99138.13
2019-03-19T16:22:55.217Z,99142.30
2019-03-19T16:25:25.487Z,99146.06
2019-03-19T16:27:59.130Z,99147.44
2019-03-19T16:30:29.442Z,99142.66
2019-03-19T16:32:59.986Z,99144.58
2019-03-19T16:35:30.236Z,99147.11
2019-03-19T16:38:01.004Z,99155.84
2019-03-19T16:40:33.982Z,99156.89
2019-03-19T16:43:04.368Z,99156.13
2019-03-19T16:45:34.678Z,99157.24
2019-03-19T16:48:05.107Z,99163.76
2019-03-19T16:50:38.087Z,99171.91
2019-03-19T16:53:08.740Z,99167.59
2019-03-19T16:55:39.305Z,99166.80
2019-03-19T16:58:09.640Z,99171.66
2019-03-19T17:00:40.360Z,99176.47
2019-03-19T17:03:12.565Z,99186.54
2019-03-19T17:05:42.864Z,99191.06
2019-03-19T17:08:13.141Z,99190.26
2019-03-19T17:10:43.517Z,99199.15
2019-03-19T17:13:14.221Z,99201.83
2019-03-19T17:15:44.597Z,99204.75
2019-03-19T17:18:16.899Z,99209.32
2019-03-19T17:20:47.088Z,99211.14
2019-03-19T17:23:17.571Z,99216.67
2019-03-19T17:25:47.829Z,99223.33
2019-03-19T17:28:22.660Z,99224.23
2019-03-19T17:30:51.044Z,99223.91
2019-03-19T17:33:21.574Z,99231.08
2019-03-19T17:35:52.308Z,99241.27
2019-03-19T17:38:22.628Z,99243.35
2019-03-19T17:40:52.976Z,99247.55
2019-03-19T17:43:23.458Z,99249.30
2019-03-19T17:45:56.439Z,99253.81
2019-03-19T17:48:27.047Z,99250.34
2019-03-19T17:50:57.630Z,99246.05
2019-03-19T17:53:28.103Z,99252.89
2019-03-19T17:55:58.760Z,99256.27
2019-03-19T17:58:29.009Z,99259.05
2019-03-19T18:00:59.363Z,99258.62
2019-03-19T18:03:30.276Z,99261.50
2019-03-19T18:06:00.580Z,99270.81
2019-03-19T18:08:30.922Z,99271.64
2019-03-19T18:11:01.515Z,99271.85
2019-03-19T18:13:31.801Z,99278.91
2019-03-19T18:16:05.114Z,99281.70
2019-03-19T18:18:35.659Z,99290.95
2019-03-19T18:21:06.582Z,99290.76
2019-03-19T18:23:36.915Z,99297.98
2019-03-19T18:26:09.382Z,99301.34
2019-03-19T18:28:39.885Z,99307.00
2019-03-19T18:31:10.547Z,99309.35
2019-03-19T18:33:41.216Z,99309.59
2019-03-19T18:36:11.511Z,99314.14
2019-03-19T18:38:42.002Z,99317.16
2019-03-19T18:41:15.051Z,99321.03
2019-03-19T18:43:45.975Z,99321.54
2019-03-19T18:46:17.137Z,99323.74
2019-03-19T18:48:48.640Z,99323.74
2019-03-19T18:51:19.420Z,99330.48
2019-03-19T18:53:49.822Z,99333.13
2019-03-19T18:56:20.366Z,99336.80
2019-03-19T18:58:51.715Z,99337.95
2019-03-19T19:01:22.320Z,99340.33
2019-03-19T19:03:52.759Z,99341.73
2019-03-19T19:06:23.088Z,99344.31
2019-03-19T19:08:53.861Z,99344.45
2019-03-19T19:11:24.779Z,99344.31
2019-03-19T19:13:55.212Z,99342.73
2019-03-19T19:16:25.589Z,99348.05
2019-03-19T19:18:58.662Z,99343.20
2019-03-19T19:21:29.017Z,99345.00
2019-03-19T19:23:59.464Z,99354.05
2019-03-19T19:26:30.014Z,99359.31
2019-03-19T19:29:00.483Z,99364.61
2019-03-19T19:31:31.187Z,99370.23
2019-03-19T19:34:01.878Z,99374.82
2019-03-19T19:36:32.342Z,99373.33
2019-03-19T19:39:03.195Z,99374.92
2019-03-19T19:41:35.505Z,99381.42
2019-03-19T19:44:06.468Z,99388.67
2019-03-19T19:46:39.817Z,99388.63
2019-03-19T19:49:10.160Z,99391.30
2019-03-19T19:51:40.937Z,99388.22
2019-03-19T19:54:11.442Z,99391.11
2019-03-19T19:56:42.318Z,99387.80
2019-03-19T19:59:12.755Z,99390.80
2019-03-19T20:01:47.209Z,99392.04
2019-03-19T20:04:17.902Z,99392.22
2019-03-19T20:06:48.512Z,99400.14
2019-03-19T20:09:19.071Z,99400.20
2019-03-19T20:11:49.401Z,99406.79
2019-03-19T20:14:19.705Z,99409.66
2019-03-19T20:16:51.382Z,99407.10
2019-03-19T20:19:23.689Z,99410.84
2019-03-19T20:21:55.661Z,99405.70
2019-03-19T20:24:26.236Z,99411.16
2019-03-19T20:26:56.988Z,99408.47
2019-03-19T20:29:27.458Z,99414.02
2019-03-19T20:31:58.160Z,99412.13
2019-03-19T20:34:30.609Z,99427.69
2019-03-19T20:41:01.260Z,99424.10
2019-03-19T20:43:32.187Z,99426.58
2019-03-19T20:46:04.081Z,99430.48
2019-03-19T20:48:35.997Z,99430.30
2019-03-19T20:51:07.315Z,99431.02
2019-03-19T20:53:37.851Z,99424.45
2019-03-19T20:56:09.949Z,99434.92
2019-03-19T20:58:43.766Z,99439.92
2019-03-19T21:01:12.644Z,99448.53
2019-03-19T21:03:43.605Z,99447.30
2019-03-19T21:06:15.675Z,99455.18
2019-03-19T21:08:46.100Z,99454.07
2019-03-19T21:11:16.885Z,99459.07
2019-03-19T21:13:49.150Z,99461.61
2019-03-19T21:16:20.079Z,99464.55
2019-03-19T21:18:50.589Z,99463.12
2019-03-19T21:21:21.051Z,99462.72
2019-03-19T21:23:51.695Z,99464.66
2019-03-19T21:26:22.199Z,99466.51
2019-03-19T21:28:52.467Z,99468.26
2019-03-19T21:31:22.906Z,99472.64
2019-03-19T21:33:53.875Z,99467.42
2019-03-19T21:36:24.587Z,99464.64
2019-03-19T21:38:56.258Z,99465.74
2019-03-19T21:41:27.070Z,99471.85
2019-03-19T21:44:00.014Z,99471.83
2019-03-19T21:46:30.493Z,99471.00
2019-03-19T21:49:01.772Z,99476.13
2019-03-19T21:51:33.122Z,99471.09
2019-03-19T21:54:03.736Z,99475.32
2019-03-19T21:56:34.215Z,99479.40
2019-03-19T21:59:05.396Z,99482.00
2019-03-19T22:01:35.946Z,99492.20
2019-03-19T22:04:06.736Z,99481.36
2019-03-19T22:06:37.179Z,99490.45
2019-03-19T22:09:07.972Z,99491.66
2019-03-19T22:11:38.505Z,99499.19
2019-03-19T22:14:09.201Z,99503.68
2019-03-19T22:16:39.942Z,99499.19
2019-03-19T22:19:18.711Z,99507.22
2019-03-19T22:21:52.886Z,99511.50
2019-03-19T22:24:25.286Z,99508.38
2019-03-19T22:26:55.767Z,99506.84
2019-03-19T22:29:26.328Z,99509.08
2019-03-19T22:31:56.486Z,99507.22
2019-03-19T22:34:26.628Z,99509.17
2019-03-19T22:36:57.321Z,99514.32
2019-03-19T22:39:27.881Z,99506.80
2019-03-19T22:41:58.406Z,99503.52
2019-03-19T22:44:33.006Z,99515.40
2019-03-19T22:47:03.526Z,99511.79
2019-03-19T22:49:37.811Z,99517.80
2019-03-19T22:52:11.049Z,99520.09
2019-03-19T22:54:41.239Z,99521.17
2019-03-19T22:57:12.018Z,99530.13
2019-03-19T22:59:44.942Z,99528.12
2019-03-19T23:02:19.303Z,99537.99
2019-03-19T23:04:50.640Z,99547.18
2019-03-19T23:07:21.042Z,99545.61
2019-03-19T23:09:51.781Z,99544.45
2019-03-19T23:12:24.686Z,99549.83
2019-03-19T23:14:55.633Z,99551.55
2019-03-19T23:17:26.034Z,99549.88
2019-03-19T23:19:57.498Z,99554.39
2019-03-19T23:22:28.068Z,99547.69
2019-03-19T23:24:59.717Z,99550.41
2019-03-19T23:27:30.265Z,99551.97
2019-03-19T23:30:00.475Z,99551.61
2019-03-19T23:32:31.192Z,99551.91
2019-03-19T23:35:01.627Z,99543.19
2019-03-19T23:37:33.885Z,99545.47
2019-03-19T23:40:04.767Z,99546.88
2019-03-19T23:42:37.252Z,99549.89
2019-03-19T23:45:09.282Z,99547.99
2019-03-19T23:47:39.519Z,99552.05
2019-03-19T23:50:12.577Z,99552.67
2019-03-19T23:52:45.080Z,99542.82
2019-03-19T23:55:16.694Z,99548.77
2019-03-19T23:57:49.501Z,99554.77
